Time;durP1;ratioP1;P1;durP2;ratioP2;P2;SDS_P1;SDS_P2;PMS_P1;PMS_P2;Temp;Humidity;BMP_temperature;BMP_pressure;BME280_temperature;BME280_humidity;BME280_pressure;Samples;Min_cycle;Max_cycle;Signal;HPM_P1;HPM_P2
2021/07/16 00:01:56;;;;;;;1.48;1.10;;;25.50;52.90;;;;;;5028238;28;20044;-56
2021/07/16 00:04:23;;;;;;;2.28;1.20;;;25.50;52.90;;;;;;5026964;28;20044;-53
2021/07/16 00:06:49;;;;;;;2.42;1.20;;;25.50;52.90;;;;;;5022955;28;20076;-54
2021/07/16 00:09:15;;;;;;;1.67;1.23;;;25.40;52.90;;;;;;5028144;28;20033;-56
2021/07/16 00:11:41;;;;;;;2.70;1.27;;;25.40;52.80;;;;;;5020866;28;20116;-55
2021/07/16 00:14:07;;;;;;;1.92;1.25;;;25.40;52.80;;;;;;5028633;28;20107;-55
2021/07/16 00:16:34;;;;;;;1.67;1.08;;;25.40;52.80;;;;;;5020047;28;20026;-55
2021/07/16 00:19:00;;;;;;;2.13;1.30;;;25.40;52.70;;;;;;5026200;28;20069;-56
2021/07/16 00:21:26;;;;;;;2.15;1.30;;;25.40;52.70;;;;;;5017124;28;20132;-56
2021/07/16 00:23:52;;;;;;;1.58;1.10;;;25.40;52.70;;;;;;5021847;28;20029;-56
2021/07/16 00:26:18;;;;;;;2.20;1.20;;;25.40;52.70;;;;;;5015817;28;20038;-53
2021/07/16 00:28:44;;;;;;;1.65;0.90;;;25.40;52.60;;;;;;5016702;28;20084;-51
2021/07/16 00:31:11;;;;;;;2.05;1.20;;;25.40;52.60;;;;;;5022838;28;20076;-51
2021/07/16 00:33:38;;;;;;;2.30;1.25;;;25.40;52.60;;;;;;5016040;28;20030;-56
2021/07/16 00:36:04;;;;;;;1.73;1.20;;;25.40;52.50;;;;;;5017388;28;20376;-55
2021/07/16 00:38:30;;;;;;;1.20;1.10;;;25.40;52.50;;;;;;5017291;28;20048;-52
2021/07/16 00:40:56;;;;;;;1.50;1.00;;;25.40;52.50;;;;;;5019993;28;20029;-55
2021/07/16 00:43:22;;;;;;;1.60;1.10;;;25.40;52.50;;;;;;5017069;28;20030;-56
2021/07/16 00:45:48;;;;;;;1.63;1.00;;;25.40;52.50;;;;;;5021445;28;20034;-52
2021/07/16 00:48:14;;;;;;;2.67;1.10;;;25.40;52.40;;;;;;5029409;28;20052;-55
2021/07/16 00:50:41;;;;;;;1.95;1.42;;;25.40;52.40;;;;;;5027211;28;20080;-53
2021/07/16 00:53:14;;;;;;;1.67;1.15;;;25.30;52.30;;;;;;5018906;28;20543;-58
2021/07/16 00:55:41;;;;;;;2.20;1.38;;;25.40;52.30;;;;;;5022504;28;20037;-56
2021/07/16 00:58:07;;;;;;;2.17;1.10;;;25.30;52.30;;;;;;5024576;28;20107;-51
2021/07/16 01:00:33;;;;;;;2.10;1.30;;;25.30;52.30;;;;;;5021281;28;20033;-56
2021/07/16 01:02:59;;;;;;;2.40;1.40;;;25.30;52.30;;;;;;5013516;28;20021;-56
2021/07/16 01:05:27;;;;;;;1.50;1.27;;;25.30;52.30;;;;;;5018685;28;20029;-53
2021/07/16 01:07:53;;;;;;;1.77;1.30;;;25.30;52.30;;;;;;5014457;28;20026;-53
2021/07/16 01:10:22;;;;;;;2.53;1.27;;;25.30;52.30;;;;;;5013411;28;20041;-53
2021/07/16 01:12:52;;;;;;;1.90;1.00;;;25.30;52.20;;;;;;5018435;28;20096;-55
2021/07/16 01:15:26;;;;;;;1.25;1.00;;;25.30;52.20;;;;;;5013579;28;20052;-53
2021/07/16 01:17:53;;;;;;;;;;;25.30;52.20;;;;;;5019673;28;20069;-56
2021/07/16 01:20:24;;;;;;;2.42;1.10;;;25.20;52.30;;;;;;5023815;28;19923;-54
2021/07/16 01:22:52;;;;;;;1.65;1.20;;;25.20;52.30;;;;;;5022345;28;20025;-58
2021/07/16 01:25:24;;;;;;;1.20;1.10;;;25.20;52.20;;;;;;5022666;28;20341;-53
2021/07/16 01:27:52;;;;;;;2.00;1.35;;;25.20;52.20;;;;;;5020279;28;20036;-54
2021/07/16 01:30:22;;;;;;;1.88;1.27;;;25.20;52.20;;;;;;5020401;28;20060;-56
2021/07/16 01:32:49;;;;;;;2.30;1.33;;;25.20;52.20;;;;;;5025158;28;20033;-55
2021/07/16 01:35:16;;;;;;;2.38;1.13;;;25.20;52.20;;;;;;5009983;28;20072;-55
2021/07/16 01:37:43;;;;;;;2.13;1.40;;;25.20;52.20;;;;;;5021935;28;20727;-56
2021/07/16 01:40:12;;;;;;;1.67;1.23;;;25.20;52.20;;;;;;5018004;28;20382;-58
2021/07/16 01:42:41;;;;;;;2.30;1.42;;;25.20;52.20;;;;;;5021644;28;20041;-57
2021/07/16 01:45:17;;;;;;;2.20;1.30;;;25.20;52.10;;;;;;5016451;28;20022;-57
2021/07/16 01:48:08;;;;;;;2.28;1.33;;;25.20;52.10;;;;;;5025517;28;20088;-56
2021/07/16 01:50:35;;;;;;;2.60;1.50;;;25.20;52.00;;;;;;5018347;28;20065;-52
2021/07/16 01:53:03;;;;;;;1.98;1.23;;;25.20;52.10;;;;;;5020054;28;20419;-56
2021/07/16 01:55:31;;;;;;;3.92;1.65;;;25.20;52.00;;;;;;5018779;28;20159;-60
2021/07/16 01:57:59;;;;;;;1.80;1.20;;;25.20;52.00;;;;;;5019457;28;20049;-53
2021/07/16 02:00:35;;;;;;;2.50;1.35;;;25.20;52.00;;;;;;5028560;28;20030;-55
2021/07/16 02:03:03;;;;;;;1.70;1.20;;;25.20;52.00;;;;;;5019314;28;20372;-55
2021/07/16 02:05:30;;;;;;;2.70;1.45;;;25.10;51.90;;;;;;5011593;28;20037;-57
2021/07/16 02:08:18;;;;;;;3.20;1.63;;;25.10;51.80;;;;;;5020604;28;20030;-54
2021/07/16 02:10:47;;;;;;;2.97;1.42;;;25.10;51.70;;;;;;5016103;28;20442;-57
2021/07/16 02:13:13;;;;;;;2.08;1.30;;;25.10;51.80;;;;;;5025277;28;20033;-55
2021/07/16 02:15:41;;;;;;;1.85;1.00;;;25.10;51.70;;;;;;5018400;28;20361;-56
2021/07/16 02:18:07;;;;;;;2.28;1.52;;;25.10;51.70;;;;;;5020509;28;20065;-53
2021/07/16 02:20:38;;;;;;;2.47;1.50;;;25.10;51.70;;;;;;5028168;28;20025;-53
2021/07/16 02:23:08;;;;;;;3.30;1.35;;;25.10;51.60;;;;;;5025592;28;20103;-53
2021/07/16 02:25:34;;;;;;;2.00;1.35;;;25.10;51.60;;;;;;5029390;28;20026;-56
2021/07/16 02:28:05;;;;;;;2.65;1.30;;;25.10;51.60;;;;;;5021302;28;20402;-54
2021/07/16 02:30:31;;;;;;;2.00;1.27;;;25.10;51.50;;;;;;5015982;28;20100;-53
2021/07/16 02:32:58;;;;;;;2.90;1.40;;;25.10;51.50;;;;;;5026934;28;20026;-53
2021/07/16 02:35:24;;;;;;;1.73;1.23;;;25.10;51.40;;;;;;5020687;28;20029;-55
2021/07/16 02:37:51;;;;;;;2.42;1.25;;;25.00;51.30;;;;;;5025178;28;20030;-55
2021/07/16 02:40:18;;;;;;;1.98;1.20;;;25.10;51.40;;;;;;5029023;28;20034;-56
2021/07/16 02:42:45;;;;;;;2.42;1.30;;;25.00;51.30;;;;;;5025397;28;20030;-54
2021/07/16 02:45:20;;;;;;;1.88;1.05;;;25.10;51.40;;;;;;5018658;28;20083;-50
2021/07/16 02:47:47;;;;;;;3.28;1.67;;;25.10;51.30;;;;;;5024663;28;20437;-52
2021/07/16 02:50:22;;;;;;;2.97;1.58;;;25.00;51.20;;;;;;5017578;28;20041;-51
2021/07/16 02:52:48;;;;;;;2.50;1.50;;;25.10;51.30;;;;;;5019416;28;20034;-55
2021/07/16 02:55:14;;;;;;;2.83;1.42;;;25.10;51.30;;;;;;5033165;28;20036;-55
2021/07/16 02:57:40;;;;;;;2.25;1.35;;;25.10;51.30;;;;;;5025189;28;20025;-57
2021/07/16 03:00:12;;;;;;;3.42;1.40;;;25.10;51.20;;;;;;5027663;28;20159;-56
2021/07/16 03:02:43;;;;;;;3.17;1.65;;;25.00;51.10;;;;;;5019808;28;20021;-56
2021/07/16 03:05:11;;;;;;;2.10;1.20;;;25.00;51.10;;;;;;5021461;28;20429;-58
2021/07/16 03:07:37;;;;;;;2.50;1.40;;;25.10;51.10;;;;;;5020857;28;20098;-55
2021/07/16 03:10:07;;;;;;;3.25;1.83;;;25.00;51.10;;;;;;5024693;28;20341;-56
2021/07/16 03:12:33;;;;;;;3.53;1.52;;;25.00;51.00;;;;;;5022080;28;20049;-57
2021/07/16 03:14:58;;;;;;;4.53;1.50;;;25.00;51.00;;;;;;5021241;28;20429;-58
2021/07/16 03:17:24;;;;;;;3.85;1.45;;;25.00;51.00;;;;;;5021099;28;20124;-55
2021/07/16 03:19:50;;;;;;;1.98;1.02;;;25.00;51.00;;;;;;5028119;28;20037;-51
2021/07/16 03:22:16;;;;;;;2.83;1.40;;;25.00;50.90;;;;;;5016016;28;20044;-58
2021/07/16 03:24:41;;;;;;;2.80;1.33;;;25.00;50.90;;;;;;5029525;28;20041;-55
2021/07/16 03:27:07;;;;;;;4.10;1.60;;;25.00;50.90;;;;;;5027376;28;20124;-54
2021/07/16 03:29:33;;;;;;;2.15;1.20;;;25.00;50.90;;;;;;5026412;28;20382;-57
2021/07/16 03:31:59;;;;;;;3.85;1.35;;;25.00;51.40;;;;;;5013431;28;20357;-57
2021/07/16 03:34:24;;;;;;;3.08;1.17;;;24.90;50.70;;;;;;5011954;28;20026;-57
2021/07/16 03:36:50;;;;;;;3.08;1.20;;;25.00;50.80;;;;;;5000923;28;20105;-56
2021/07/16 03:39:16;;;;;;;2.67;1.48;;;24.90;50.70;;;;;;5014201;28;20096;-56
2021/07/16 03:41:43;;;;;;;4.57;1.42;;;24.90;50.70;;;;;;5006380;28;20029;-55
2021/07/16 03:44:09;;;;;;;3.70;1.75;;;25.00;50.80;;;;;;5014543;28;20030;-55
2021/07/16 03:46:35;;;;;;;2.25;1.30;;;24.90;50.70;;;;;;5008170;28;20030;-53
2021/07/16 03:49:01;;;;;;;2.60;1.45;;;24.90;50.60;;;;;;5009386;28;20092;-55
2021/07/16 03:51:27;;;;;;;2.88;1.40;;;24.90;50.60;;;;;;5012336;28;20029;-54
2021/07/16 03:53:53;;;;;;;3.65;1.55;;;24.90;50.60;;;;;;5012175;28;20026;-54
2021/07/16 03:56:19;;;;;;;2.03;1.20;;;24.90;50.60;;;;;;5013188;28;20029;-56
2021/07/16 03:58:46;;;;;;;3.05;1.38;;;24.90;50.50;;;;;;5009979;28;20118;-56
2021/07/16 04:01:13;;;;;;;2.85;1.38;;;24.90;50.50;;;;;;5014148;28;20042;-52
2021/07/16 04:03:39;;;;;;;2.83;1.48;;;24.90;50.40;;;;;;5006850;28;20045;-52
2021/07/16 04:06:05;;;;;;;2.83;1.20;;;24.90;50.40;;;;;;5014157;28;20026;-54
2021/07/16 04:08:35;;;;;;;4.13;1.30;;;24.90;50.40;;;;;;5009342;28;20048;-55
2021/07/16 04:11:00;;;;;;;2.88;1.50;;;24.90;50.30;;;;;;5009026;28;20042;-56
2021/07/16 04:13:26;;;;;;;2.90;1.45;;;24.90;50.30;;;;;;5014209;28;20426;-56
2021/07/16 04:15:52;;;;;;;3.03;1.45;;;24.90;50.30;;;;;;5009313;28;20422;-57
2021/07/16 04:18:17;;;;;;;3.42;1.60;;;24.80;50.20;;;;;;5011001;28;20456;-52
2021/07/16 04:20:43;;;;;;;2.50;1.42;;;24.80;50.20;;;;;;5008592;28;20038;-56
2021/07/16 04:23:09;;;;;;;2.63;1.30;;;24.80;50.20;;;;;;5014324;28;20030;-52
2021/07/16 04:25:35;;;;;;;2.58;1.30;;;24.80;50.20;;;;;;5009946;28;20360;-56
2021/07/16 04:28:03;;;;;;;1.95;1.30;;;24.80;50.10;;;;;;5011283;28;20037;-55
2021/07/16 04:30:28;;;;;;;3.25;1.40;;;24.80;50.10;;;;;;5011691;28;20053;-56
2021/07/16 04:32:57;;;;;;;2.85;1.33;;;24.80;50.10;;;;;;5031402;28;20036;-55
2021/07/16 04:35:24;;;;;;;2.25;1.20;;;24.80;50.00;;;;;;5022433;28;20029;-54
2021/07/16 04:37:50;;;;;;;3.38;1.38;;;24.80;50.00;;;;;;5021505;28;20113;-53
2021/07/16 04:40:19;;;;;;;2.25;1.27;;;24.80;50.00;;;;;;5012923;28;20248;-52
2021/07/16 04:42:53;;;;;;;3.83;1.55;;;24.80;50.00;;;;;;5015958;28;20033;-55
2021/07/16 04:45:19;;;;;;;2.42;1.23;;;24.80;50.00;;;;;;5014719;28;20033;-54
2021/07/16 04:47:46;;;;;;;4.07;1.30;;;24.80;50.00;;;;;;5022828;28;20041;-57
2021/07/16 04:50:13;;;;;;;6.28;1.67;;;24.80;49.90;;;;;;5020198;28;20127;-55
2021/07/16 04:52:40;;;;;;;3.67;1.65;;;24.80;49.90;;;;;;5018058;28;20029;-52
2021/07/16 04:55:07;;;;;;;2.63;1.30;;;24.80;49.90;;;;;;5022154;28;20029;-55
2021/07/16 04:57:33;;;;;;;2.65;1.20;;;24.80;49.90;;;;;;5024358;28;20032;-53
2021/07/16 04:59:59;;;;;;;2.92;1.30;;;24.80;49.90;;;;;;5025201;28;20025;-52
2021/07/16 05:02:25;;;;;;;2.63;1.02;;;24.80;49.90;;;;;;5028644;28;20467;-56
2021/07/16 05:04:51;;;;;;;1.85;1.10;;;24.80;49.80;;;;;;5024388;28;20026;-55
2021/07/16 05:07:17;;;;;;;3.17;1.30;;;24.80;49.80;;;;;;5017665;28;20433;-54
2021/07/16 05:09:43;;;;;;;3.92;1.52;;;24.80;49.80;;;;;;5021927;28;20057;-55
2021/07/16 05:12:09;;;;;;;1.23;0.93;;;24.80;49.80;;;;;;5043424;28;20104;-56
2021/07/16 05:14:35;;;;;;;4.75;1.00;;;24.70;49.70;;;;;;5021540;28;20034;-57
2021/07/16 05:17:00;;;;;;;2.85;1.30;;;24.80;49.70;;;;;;5017032;28;20025;-54
2021/07/16 05:19:26;;;;;;;2.47;1.20;;;24.80;49.70;;;;;;5024022;28;20025;-55
2021/07/16 05:21:52;;;;;;;3.78;1.40;;;24.80;49.70;;;;;;5019884;28;20413;-57
2021/07/16 05:24:18;;;;;;;2.75;1.30;;;24.80;49.70;;;;;;5015707;28;20096;-54
2021/07/16 05:26:44;;;;;;;3.03;1.20;;;24.80;49.70;;;;;;5026899;28;20033;-54
2021/07/16 05:29:09;;;;;;;2.67;1.30;;;24.70;49.60;;;;;;5020974;28;20041;-53
2021/07/16 05:31:35;;;;;;;2.38;0.93;;;24.70;49.60;;;;;;5015924;28;20501;-53
2021/07/16 05:34:01;;;;;;;4.78;1.48;;;24.80;49.60;;;;;;5015240;28;20021;-53
2021/07/16 05:36:27;;;;;;;2.45;1.15;;;24.70;49.60;;;;;;5028761;28;20480;-57
2021/07/16 05:38:53;;;;;;;3.05;1.30;;;24.70;49.60;;;;;;5026765;28;20038;-55
2021/07/16 05:41:19;;;;;;;3.00;1.48;;;24.70;49.50;;;;;;5018450;28;20048;-51
2021/07/16 05:43:45;;;;;;;2.92;1.58;;;24.70;49.50;;;;;;5018757;28;20385;-55
2021/07/16 05:46:10;;;;;;;3.65;1.20;;;24.70;49.50;;;;;;5016534;28;20026;-52
2021/07/16 05:48:36;;;;;;;3.88;1.60;;;24.70;49.50;;;;;;5024501;28;20144;-53
2021/07/16 05:51:02;;;;;;;4.78;1.48;;;24.70;49.50;;;;;;5025482;28;20018;-53
2021/07/16 05:53:28;;;;;;;3.08;1.33;;;24.70;49.50;;;;;;5029872;28;20029;-51
2021/07/16 05:55:54;;;;;;;4.18;1.27;;;24.70;49.40;;;;;;5028716;28;20038;-54
2021/07/16 05:58:20;;;;;;;2.50;1.13;;;24.70;49.40;;;;;;5026525;28;20075;-53
2021/07/16 06:00:46;;;;;;;5.18;1.48;;;24.80;49.50;;;;;;5028470;28;20357;-56
2021/07/16 06:03:12;;;;;;;3.20;1.20;;;24.80;49.40;;;;;;5022823;28;20032;-53
2021/07/16 06:05:38;;;;;;;2.75;1.20;;;24.80;49.40;;;;;;5029364;28;20121;-51
2021/07/16 06:08:04;;;;;;;1.92;0.95;;;24.80;49.40;;;;;;5030131;28;20021;-55
2021/07/16 06:10:32;;;;;;;3.50;1.40;;;24.80;49.40;;;;;;5023965;28;20041;-57
2021/07/16 06:12:57;;;;;;;3.67;1.63;;;24.70;49.30;;;;;;5020984;28;20026;-54
2021/07/16 06:15:24;;;;;;;3.45;1.40;;;24.70;49.40;;;;;;5017561;28;20044;-57
2021/07/16 06:17:50;;;;;;;3.53;1.20;;;24.80;49.40;;;;;;5022890;28;20033;-54
2021/07/16 06:20:17;;;;;;;2.67;1.23;;;24.70;49.40;;;;;;5022098;28;20036;-55
2021/07/16 06:22:44;;;;;;;2.70;1.10;;;24.70;49.40;;;;;;5029284;28;20453;-56
2021/07/16 06:25:11;;;;;;;4.30;1.70;;;24.80;49.50;;;;;;5020579;28;20105;-56
2021/07/16 06:27:38;;;;;;;3.75;1.17;;;24.80;49.50;;;;;;5025770;28;20029;-52
2021/07/16 06:30:06;;;;;;;4.43;1.50;;;24.80;49.50;;;;;;5028315;28;20057;-57
2021/07/16 06:32:32;;;;;;;3.17;1.30;;;24.70;49.60;;;;;;5016286;28;20425;-56
2021/07/16 06:34:58;;;;;;;4.65;1.92;;;24.70;49.70;;;;;;5034240;28;20044;-57
2021/07/16 06:37:23;;;;;;;2.72;1.08;;;24.80;49.80;;;;;;5017861;28;20034;-57
2021/07/16 06:39:49;;;;;;;3.67;1.25;;;24.80;49.80;;;;;;5023515;28;20040;-54
2021/07/16 06:42:15;;;;;;;3.38;1.45;;;24.90;49.80;;;;;;5018764;28;20026;-57
2021/07/16 06:44:41;;;;;;;3.50;1.23;;;24.90;49.70;;;;;;5020359;28;20034;-56
2021/07/16 06:47:06;;;;;;;3.13;1.38;;;24.90;49.60;;;;;;5025224;28;20037;-58
2021/07/16 06:49:32;;;;;;;2.75;1.50;;;25.00;50.20;;;;;;5019447;28;20038;-53
2021/07/16 06:51:59;;;;;;;4.13;1.17;;;25.00;49.50;;;;;;5019501;28;20418;-56
2021/07/16 06:54:25;;;;;;;2.75;1.25;;;25.00;49.50;;;;;;5023005;28;20036;-56
2021/07/16 06:56:51;;;;;;;2.80;1.65;;;25.10;49.50;;;;;;5018471;28;20044;-56
2021/07/16 06:59:21;;;;;;;2.13;1.02;;;25.10;49.40;;;;;;5027614;28;20038;-58
2021/07/16 07:01:49;;;;;;;3.22;1.20;;;25.10;49.40;;;;;;5020967;28;20038;-55
2021/07/16 07:04:15;;;;;;;4.25;1.52;;;25.10;49.40;;;;;;5011784;28;20026;-57
2021/07/16 07:06:41;;;;;;;3.28;1.35;;;25.10;49.30;;;;;;5016258;28;20034;-60
2021/07/16 07:09:06;;;;;;;4.53;1.50;;;25.20;49.30;;;;;;5012965;28;20048;-55
2021/07/16 07:11:33;;;;;;;3.65;1.35;;;25.20;49.20;;;;;;5005564;28;20036;-55
2021/07/16 07:13:59;;;;;;;3.10;1.35;;;25.20;49.10;;;;;;5006766;28;20022;-54
2021/07/16 07:16:24;;;;;;;4.35;1.58;;;25.30;49.10;;;;;;5016705;28;20345;-59
2021/07/16 07:18:51;;;;;;;4.25;2.00;;;25.30;49.70;;;;;;5024185;28;20031;-59
2021/07/16 07:21:17;;;;;;;2.83;1.50;;;25.30;49.00;;;;;;5027064;28;20053;-62
2021/07/16 07:23:42;;;;;;;4.55;1.50;;;25.30;48.90;;;;;;5013294;28;20401;-58
2021/07/16 07:26:09;;;;;;;2.42;1.45;;;25.30;48.90;;;;;;5023504;28;20353;-58
2021/07/16 07:28:35;;;;;;;3.35;1.50;;;25.40;48.90;;;;;;5025288;28;20521;-57
2021/07/16 07:31:01;;;;;;;3.35;1.60;;;25.40;48.70;;;;;;5019324;28;20053;-57
2021/07/16 07:33:27;;;;;;;6.32;1.80;;;25.40;48.60;;;;;;5018825;28;20106;-56
2021/07/16 07:35:56;;;;;;;4.13;1.80;;;25.40;48.60;;;;;;5017015;28;20441;-56
2021/07/16 07:38:22;;;;;;;4.05;1.52;;;25.40;48.60;;;;;;5014790;28;20033;-58
2021/07/16 07:40:48;;;;;;;4.32;1.70;;;25.40;48.50;;;;;;5022495;28;20061;-55
2021/07/16 07:43:14;;;;;;;4.10;1.75;;;25.40;48.40;;;;;;5013804;28;20040;-60
2021/07/16 07:45:40;;;;;;;6.22;1.75;;;25.40;48.40;;;;;;5015710;28;20022;-58
2021/07/16 07:48:06;;;;;;;5.85;1.88;;;25.50;48.40;;;;;;5021454;28;20080;-58
2021/07/16 07:50:33;;;;;;;4.63;1.70;;;25.40;48.20;;;;;;5019059;28;20354;-60
2021/07/16 07:53:00;;;;;;;3.65;1.48;;;25.50;48.30;;;;;;5018047;28;20053;-52
2021/07/16 07:55:27;;;;;;;4.45;1.77;;;25.40;48.10;;;;;;5020108;28;20045;-60
2021/07/16 07:57:54;;;;;;;4.72;1.73;;;25.40;48.10;;;;;;5017104;28;20450;-53
2021/07/16 08:00:23;;;;;;;4.57;1.98;;;25.40;48.20;;;;;;5024179;28;20028;-58
2021/07/16 08:02:50;;;;;;;6.03;1.65;;;25.50;48.30;;;;;;5024918;28;20030;-61
2021/07/16 08:05:16;;;;;;;4.10;1.67;;;25.50;48.40;;;;;;5026343;28;20045;-55
2021/07/16 08:07:43;;;;;;;6.32;2.35;;;25.50;48.30;;;;;;5021730;28;20096;-59
2021/07/16 08:10:11;;;;;;;4.45;1.90;;;25.50;48.30;;;;;;5015875;28;20037;-57
2021/07/16 08:12:38;;;;;;;3.75;1.65;;;25.60;48.40;;;;;;5012049;28;20099;-53
2021/07/16 08:15:06;;;;;;;5.75;1.55;;;25.60;48.40;;;;;;5010813;28;20049;-55
2021/07/16 08:17:32;;;;;;;3.72;1.60;;;25.60;48.30;;;;;;5019461;28;20034;-54
2021/07/16 08:19:58;;;;;;;4.68;1.50;;;25.60;48.20;;;;;;5006130;28;20105;-56
2021/07/16 08:22:23;;;;;;;4.60;1.90;;;25.60;48.10;;;;;;5005910;28;20366;-55
2021/07/16 08:24:49;;;;;;;6.45;2.28;;;25.60;48.00;;;;;;5004774;28;20093;-57
2021/07/16 08:27:15;;;;;;;4.68;1.73;;;25.60;48.00;;;;;;5011788;28;20105;-58
2021/07/16 08:29:42;;;;;;;6.20;2.08;;;25.60;47.90;;;;;;5013057;28;20052;-57
2021/07/16 08:32:08;;;;;;;4.05;1.60;;;25.60;47.80;;;;;;5014101;28;20059;-55
2021/07/16 08:34:34;;;;;;;4.50;1.95;;;25.60;47.80;;;;;;5006568;28;20208;-55
2021/07/16 08:36:59;;;;;;;4.28;1.63;;;25.60;47.70;;;;;;5012543;28;20078;-56
2021/07/16 08:39:26;;;;;;;4.78;1.80;;;25.70;47.70;;;;;;5009059;28;20057;-53
2021/07/16 08:41:52;;;;;;;4.88;1.95;;;25.70;47.70;;;;;;5008508;28;20109;-57
2021/07/16 08:44:18;;;;;;;4.80;1.73;;;25.70;47.60;;;;;;5002156;28;20022;-56
2021/07/16 08:46:46;;;;;;;5.95;1.83;;;25.70;47.50;;;;;;5018383;28;20023;-59
2021/07/16 08:49:13;;;;;;;4.25;1.70;;;25.70;47.50;;;;;;5004346;28;20037;-56
2021/07/16 08:51:41;;;;;;;2.30;1.15;;;25.70;47.40;;;;;;5000841;28;20034;-55
2021/07/16 08:54:11;;;;;;;3.10;1.40;;;25.70;47.40;;;;;;5003930;28;20404;-57
2021/07/16 08:56:37;;;;;;;3.45;1.50;;;25.70;47.40;;;;;;5015516;28;20473;-57
2021/07/16 08:59:06;;;;;;;4.50;1.60;;;25.70;47.30;;;;;;5002755;28;20469;-57
2021/07/16 09:01:43;;;;;;;3.35;1.40;;;25.70;47.30;;;;;;5003272;28;20058;-58
2021/07/16 09:04:10;;;;;;;3.38;1.45;;;25.80;47.30;;;;;;5012391;28;20465;-58
2021/07/16 09:06:49;;;;;;;5.38;1.52;;;25.80;47.30;;;;;;5011137;28;20072;-60
2021/07/16 09:09:17;;;;;;;4.22;1.92;;;25.80;47.20;;;;;;4999600;28;20041;-53
2021/07/16 09:11:51;;;;;;;3.70;1.40;;;25.80;47.20;;;;;;5003666;28;20030;-58
2021/07/16 09:14:18;;;;;;;3.10;1.50;;;25.80;47.20;;;;;;5010904;28;20041;-53
2021/07/16 09:17:03;;;;;;;3.10;1.40;;;25.80;47.20;;;;;;5010778;28;20034;-56
2021/07/16 09:19:33;;;;;;;5.05;2.03;;;25.80;47.10;;;;;;5006916;28;20058;-53
2021/07/16 09:22:05;;;;;;;5.65;1.83;;;25.80;47.20;;;;;;5003159;28;20057;-52
2021/07/16 09:24:32;;;;;;;4.32;2.03;;;25.80;47.10;;;;;;5002637;28;20034;-59
2021/07/16 09:26:58;;;;;;;3.67;1.40;;;25.80;47.10;;;;;;5031601;28;20029;-57
2021/07/16 09:29:33;;;;;;;4.60;1.50;;;25.80;47.10;;;;;;5015447;28;20049;-57
2021/07/16 09:32:03;;;;;;;2.95;1.55;;;25.80;47.00;;;;;;5011436;28;20081;-57
2021/07/16 09:34:29;;;;;;;4.55;1.60;;;25.80;47.00;;;;;;5022251;28;20487;-61
2021/07/16 09:36:55;;;;;;;4.75;1.88;;;25.80;47.10;;;;;;5009465;28;20018;-59
2021/07/16 09:39:25;;;;;;;4.13;1.48;;;25.80;47.10;;;;;;5009368;28;20026;-55
2021/07/16 09:41:57;;;;;;;3.75;1.48;;;25.80;47.10;;;;;;5008266;28;20041;-51
2021/07/16 09:44:30;;;;;;;3.35;1.67;;;25.80;47.00;;;;;;5012685;28;20033;-55
2021/07/16 09:47:17;;;;;;;4.80;1.95;;;25.80;47.20;;;;;;5024062;28;20029;-54
2021/07/16 09:50:10;;;;;;;3.63;1.40;;;25.80;47.30;;;;;;5015273;28;20033;-55
2021/07/16 09:52:36;;;;;;;3.85;1.50;;;25.80;47.40;;;;;;5007855;28;20030;-56
2021/07/16 09:55:09;;;;;;;4.97;1.80;;;25.80;47.50;;;;;;5011953;28;20029;-55
2021/07/16 09:57:42;;;;;;;4.47;1.77;;;25.90;47.70;;;;;;5015999;28;20033;-58
2021/07/16 10:00:12;;;;;;;4.23;1.97;;;25.90;47.80;;;;;;5014473;28;20045;-63
2021/07/16 10:02:42;;;;;;;4.22;1.60;;;25.90;47.80;;;;;;5009572;28;20041;-61
2021/07/16 10:05:08;;;;;;;4.15;1.88;;;25.90;47.70;;;;;;5011848;28;20056;-58
2021/07/16 10:07:35;;;;;;;2.95;1.60;;;26.00;47.70;;;;;;5015879;28;20048;-57
2021/07/16 10:10:02;;;;;;;3.28;1.55;;;26.00;47.60;;;;;;5012608;28;20053;-57
2021/07/16 10:12:29;;;;;;;4.22;1.50;;;26.10;47.60;;;;;;5008382;28;20057;-50
2021/07/16 10:14:55;;;;;;;4.40;1.65;;;26.10;47.50;;;;;;5011238;28;20357;-56
2021/07/16 10:17:22;;;;;;;3.88;1.40;;;26.10;47.40;;;;;;5005763;28;20057;-51
2021/07/16 10:19:50;;;;;;;5.15;2.03;;;26.20;47.50;;;;;;5002619;28;20438;-57
2021/07/16 10:22:17;;;;;;;3.95;2.00;;;26.20;47.40;;;;;;5007326;28;20034;-57
2021/07/16 10:24:44;;;;;;;4.45;1.80;;;26.20;47.30;;;;;;5015803;28;20029;-57
2021/07/16 10:27:12;;;;;;;6.05;2.20;;;26.30;47.30;;;;;;5012465;28;21449;-57
2021/07/16 10:29:42;;;;;;;5.40;2.10;;;26.30;47.30;;;;;;5017463;28;20080;-52
2021/07/16 10:32:09;;;;;;;3.92;2.00;;;26.30;47.40;;;;;;5021687;28;20045;-49
2021/07/16 10:34:40;;;;;;;5.22;2.45;;;26.30;47.40;;;;;;5018923;28;20030;-57
2021/07/16 10:37:13;;;;;;;5.30;2.50;;;26.30;47.40;;;;;;5023399;28;20045;-55
2021/07/16 10:39:45;;;;;;;6.57;2.17;;;26.40;47.40;;;;;;5021145;28;20045;-57
2021/07/16 10:42:26;;;;;;;3.75;1.65;;;26.40;47.40;;;;;;5018265;28;20049;-50
2021/07/16 10:45:04;;;;;;;5.93;2.22;;;26.50;47.50;;;;;;5034630;28;20044;-59
2021/07/16 10:47:47;;;;;;;5.57;2.10;;;26.50;47.50;;;;;;5011168;28;20044;-61
2021/07/16 10:50:33;;;;;;;5.80;1.90;;;26.50;47.50;;;;;;5019501;28;20381;-53
2021/07/16 10:52:59;;;;;;;4.97;2.13;;;26.50;47.50;;;;;;5022389;28;20531;-61
2021/07/16 10:55:36;;;;;;;5.20;1.83;;;26.60;47.60;;;;;;5022878;28;20037;-60
2021/07/16 10:58:34;;;;;;;4.90;2.00;;;26.60;47.60;;;;;;5016941;28;20033;-60
2021/07/16 11:01:05;;;;;;;4.53;1.85;;;26.60;47.50;;;;;;5013885;28;20404;-56
2021/07/16 11:03:41;;;;;;;4.35;1.98;;;26.60;47.50;;;;;;5023660;28;20092;-57
2021/07/16 11:06:12;;;;;;;5.70;1.83;;;26.60;47.40;;;;;;5017261;28;20030;-53
2021/07/16 11:08:39;;;;;;;5.13;2.20;;;26.70;47.50;;;;;;5022448;28;20087;-54
2021/07/16 11:11:06;;;;;;;4.70;1.92;;;26.70;47.50;;;;;;5022818;28;20030;-56
2021/07/16 11:13:34;;;;;;;3.63;1.90;;;26.70;47.50;;;;;;5022367;28;20037;-60
2021/07/16 11:16:27;;;;;;;7.22;2.20;;;26.70;47.50;;;;;;5017210;28;20318;-59
2021/07/16 11:19:05;;;;;;;3.75;1.63;;;26.70;47.50;;;;;;5013783;28;20049;-58
2021/07/16 11:21:40;;;;;;;4.90;2.05;;;26.80;47.50;;;;;;5022829;28;20029;-61
2021/07/16 11:24:07;;;;;;;4.28;1.60;;;26.80;47.50;;;;;;5021861;28;20045;-57
2021/07/16 11:26:49;;;;;;;3.95;1.90;;;26.80;47.40;;;;;;5018427;28;20117;-53
2021/07/16 11:29:16;;;;;;;5.47;1.70;;;26.80;47.40;;;;;;5035356;28;20046;-61
2021/07/16 11:31:42;;;;;;;6.10;1.80;;;26.80;47.40;;;;;;5021677;28;20145;-57
2021/07/16 11:34:14;;;;;;;4.03;1.88;;;26.80;47.30;;;;;;5025749;28;20111;-54
2021/07/16 11:36:51;;;;;;;5.05;1.70;;;26.80;47.20;;;;;;5025572;28;21508;-58
2021/07/16 11:39:28;;;;;;;3.97;1.42;;;26.80;47.10;;;;;;5022581;28;20072;-52
2021/07/16 11:41:54;;;;;;;7.45;2.50;;;26.90;47.10;;;;;;5015069;28;20029;-55
2021/07/16 11:44:41;;;;;;;3.50;1.55;;;26.80;47.10;;;;;;5020880;28;20448;-55
2021/07/16 11:47:24;;;;;;;5.00;2.05;;;26.90;47.00;;;;;;5017864;28;20029;-55
2021/07/16 11:49:52;;;;;;;5.93;1.95;;;26.80;47.00;;;;;;5021158;28;20473;-60
2021/07/16 11:52:28;;;;;;;4.50;1.73;;;26.80;47.10;;;;;;5018254;28;20381;-54
2021/07/16 11:55:16;;;;;;;4.85;1.90;;;26.80;47.00;;;;;;5018264;28;20018;-61
2021/07/16 11:57:46;;;;;;;4.22;2.20;;;26.80;47.00;;;;;;5016363;28;20038;-59
2021/07/16 12:00:12;;;;;;;3.65;2.13;;;26.80;47.10;;;;;;5011312;28;20034;-60
2021/07/16 12:02:38;;;;;;;6.25;2.53;;;26.70;47.00;;;;;;5014713;28;20118;-59
2021/07/16 12:05:06;;;;;;;5.30;1.80;;;26.70;47.00;;;;;;5010335;28;20117;-57
2021/07/16 12:07:40;;;;;;;5.45;1.92;;;26.70;47.00;;;;;;5006956;28;20433;-58
2021/07/16 12:10:17;;;;;;;4.43;1.80;;;26.70;46.90;;;;;;5022654;28;20041;-57
2021/07/16 12:12:44;;;;;;;4.25;2.35;;;26.70;46.90;;;;;;5026168;28;20452;-57
2021/07/16 12:15:20;;;;;;;5.65;2.17;;;26.70;47.00;;;;;;5008647;28;20404;-59
2021/07/16 12:17:55;;;;;;;5.38;1.90;;;26.80;47.00;;;;;;5014266;28;20215;-59
2021/07/16 12:20:32;;;;;;;4.38;1.83;;;26.70;47.00;;;;;;5014870;28;20030;-59
2021/07/16 12:22:59;;;;;;;3.88;2.00;;;26.70;47.00;;;;;;5017226;28;20030;-52
2021/07/16 12:25:26;;;;;;;5.57;2.00;;;26.70;47.00;;;;;;5018321;28;20319;-60
2021/07/16 12:28:07;;;;;;;4.47;2.08;;;26.70;47.00;;;;;;5014893;28;20418;-59
2021/07/16 12:30:34;;;;;;;4.32;2.15;;;26.70;46.90;;;;;;5014553;28;20141;-54
2021/07/16 12:33:05;;;;;;;3.97;1.77;;;26.70;47.00;;;;;;5015222;28;20030;-56
2021/07/16 12:35:37;;;;;;;4.72;1.98;;;26.70;47.00;;;;;;5023297;28;20148;-63
2021/07/16 12:38:05;;;;;;;4.85;1.77;;;26.70;46.90;;;;;;5022339;28;20322;-58
2021/07/16 12:40:31;;;;;;;3.60;1.77;;;26.70;46.90;;;;;;5035759;28;20036;-57
2021/07/16 12:43:04;;;;;;;4.32;2.10;;;26.80;46.90;;;;;;5012367;28;20022;-56
2021/07/16 12:45:46;;;;;;;3.90;1.58;;;26.80;46.90;;;;;;5004490;28;20033;-58
2021/07/16 12:48:12;;;;;;;3.03;1.58;;;26.80;46.80;;;;;;5010169;28;20389;-56
2021/07/16 12:50:39;;;;;;;4.78;1.90;;;26.80;46.80;;;;;;5008830;28;20030;-55
2021/07/16 12:53:05;;;;;;;3.45;1.70;;;26.80;46.80;;;;;;5004239;28;20041;-60
2021/07/16 12:55:35;;;;;;;4.05;1.80;;;26.80;46.80;;;;;;5019992;28;20022;-57